createdAt,value
2023-02-04T00:00:31.018Z,94.00
2023-02-04T00:03:05.843Z,93.43
2023-02-04T00:05:38.715Z,93.12
2023-02-04T00:08:11.670Z,92.59
2023-02-04T00:10:44.530Z,93.90
2023-02-04T00:13:17.949Z,93.28
2023-02-04T00:15:51.011Z,93.11
2023-02-04T00:18:25.445Z,94.04
2023-02-04T00:20:58.189Z,93.87
2023-02-04T00:23:30.906Z,94.82
2023-02-04T00:26:03.867Z,94.95
2023-02-04T00:28:36.610Z,95.66
2023-02-04T00:31:09.427Z,95.20
2023-02-04T00:33:43.917Z,95.01
2023-02-04T00:36:16.683Z,95.42
2023-02-04T00:38:50.466Z,95.74
2023-02-04T00:41:23.227Z,95.58
2023-02-04T00:43:56.020Z,95.73
2023-02-04T00:46:30.358Z,95.80
2023-02-04T00:49:06.605Z,95.66
2023-02-04T00:51:41.124Z,95.02
2023-02-04T00:54:15.780Z,94.95
2023-02-04T00:56:48.528Z,94.63
2023-02-04T00:59:21.550Z,94.86
2023-02-04T01:01:54.367Z,94.75
2023-02-04T01:04:29.986Z,94.00
2023-02-04T01:07:02.992Z,93.67
2023-02-04T01:09:39.030Z,93.60
2023-02-04T01:12:11.848Z,94.08
2023-02-04T01:14:44.807Z,93.78
2023-02-04T01:17:18.408Z,95.00
2023-02-04T01:19:55.267Z,94.96
2023-02-04T01:22:28.175Z,94.35
2023-02-04T01:25:01.756Z,94.18
2023-02-04T01:27:47.405Z,93.88
2023-02-04T01:30:20.272Z,92.94
2023-02-04T01:32:53.133Z,92.56
2023-02-04T01:35:27.343Z,91.68
2023-02-04T01:38:00.112Z,91.91
2023-02-04T01:40:33.287Z,91.64
2023-02-04T01:43:07.010Z,91.92
2023-02-04T01:45:39.908Z,91.86
2023-02-04T01:48:20.064Z,92.13
2023-02-04T01:50:58.070Z,92.23
2023-02-04T01:53:32.699Z,92.27
2023-02-04T01:56:16.481Z,92.69
2023-02-04T01:58:50.164Z,93.45
2023-02-04T02:01:38.198Z,94.12
2023-02-04T02:04:13.212Z,93.64
2023-02-04T02:06:51.890Z,93.04
2023-02-04T02:09:25.099Z,93.59
2023-02-04T02:11:58.369Z,93.17
2023-02-04T02:14:32.252Z,92.29
2023-02-04T02:17:05.106Z,91.81
2023-02-04T02:19:40.988Z,91.46
2023-02-04T02:22:25.290Z,91.02
2023-02-04T02:24:59.405Z,90.72
2023-02-04T02:27:32.334Z,90.37
2023-02-04T02:30:06.236Z,90.32
2023-02-04T02:32:39.922Z,90.93
2023-02-04T02:35:13.063Z,90.70
2023-02-04T02:37:45.891Z,89.98
2023-02-04T02:40:21.026Z,90.66
2023-02-04T02:42:55.055Z,90.85
2023-02-04T02:45:31.510Z,91.35
2023-02-04T02:48:04.503Z,91.47
2023-02-04T02:50:37.896Z,92.25
2023-02-04T02:53:12.910Z,92.58
2023-02-04T02:55:48.532Z,92.84
2023-02-04T02:58:29.040Z,93.70
2023-02-04T03:01:05.599Z,93.98
2023-02-04T03:03:44.235Z,93.82
2023-02-04T03:06:20.420Z,94.22
2023-02-04T03:08:56.833Z,94.59
2023-02-04T03:11:32.653Z,94.59
2023-02-04T03:14:06.112Z,95.00
2023-02-04T03:16:40.483Z,93.58
2023-02-04T03:19:14.098Z,93.13
2023-02-04T03:21:47.183Z,92.90
2023-02-04T03:24:20.103Z,92.53
2023-02-04T03:26:54.367Z,92.73
2023-02-04T03:29:28.444Z,93.43
2023-02-04T03:32:03.170Z,92.99
2023-02-04T03:34:36.088Z,93.16
2023-02-04T03:37:10.413Z,93.18
2023-02-04T03:39:43.460Z,92.78
2023-02-04T03:42:17.774Z,92.14
2023-02-04T03:44:50.847Z,91.74
2023-02-04T03:47:23.677Z,91.17
2023-02-04T03:49:56.460Z,91.24
2023-02-04T03:52:29.250Z,90.87
2023-02-04T03:55:02.042Z,90.52
2023-02-04T03:57:36.151Z,90.90
2023-02-04T04:00:10.564Z,89.88
2023-02-04T04:02:46.456Z,88.99
2023-02-04T04:05:19.389Z,89.39
2023-02-04T04:07:52.685Z,89.29
2023-02-04T04:10:25.688Z,89.42
2023-02-04T04:12:59.860Z,88.68
2023-02-04T04:15:34.123Z,89.46
2023-02-04T04:18:07.092Z,89.85
2023-02-04T04:20:39.892Z,89.70
2023-02-04T04:23:12.669Z,90.40
2023-02-04T04:25:45.652Z,90.68
2023-02-04T04:28:19.896Z,90.71
2023-02-04T04:30:52.756Z,91.49
2023-02-04T04:33:25.562Z,91.57
2023-02-04T04:35:58.541Z,91.82
2023-02-04T04:38:31.309Z,91.51
2023-02-04T04:41:04.187Z,91.42
2023-02-04T04:43:38.407Z,91.72
2023-02-04T04:46:11.185Z,91.19
2023-02-04T04:48:43.970Z,92.07
2023-02-04T04:51:16.855Z,91.91
2023-02-04T04:53:49.629Z,92.01
2023-02-04T04:56:22.422Z,92.64
2023-02-04T04:58:56.587Z,92.67
2023-02-04T05:01:29.320Z,92.45
2023-02-04T05:04:03.886Z,92.28
2023-02-04T05:06:36.669Z,92.38
2023-02-04T05:09:09.703Z,92.48
2023-02-04T05:11:42.443Z,91.98
2023-02-04T05:14:16.585Z,91.65
2023-02-04T05:16:49.424Z,92.02
2023-02-04T05:19:22.226Z,91.18
2023-02-04T05:21:55.120Z,90.99
2023-02-04T05:24:27.951Z,91.44
2023-02-04T05:27:00.723Z,91.17
2023-02-04T05:29:34.883Z,91.39
2023-02-04T05:32:07.652Z,91.26
2023-02-04T05:34:40.589Z,91.04
2023-02-04T05:37:15.360Z,90.40
2023-02-04T05:39:48.566Z,90.89
2023-02-04T05:42:21.346Z,90.51
2023-02-04T05:44:55.580Z,90.73
2023-02-04T05:47:28.450Z,90.79
2023-02-04T05:50:01.359Z,90.60
2023-02-04T05:52:34.205Z,90.06
2023-02-04T05:55:08.120Z,90.00
2023-02-04T05:57:41.153Z,89.85
2023-02-04T06:00:16.035Z,90.15
2023-02-04T06:02:48.775Z,90.52
2023-02-04T06:05:22.997Z,90.79
2023-02-04T06:07:55.834Z,89.94
2023-02-04T06:10:28.645Z,90.55
2023-02-04T06:13:01.479Z,90.48
2023-02-04T06:15:35.644Z,91.00
2023-02-04T06:18:08.695Z,91.44
2023-02-04T06:20:41.691Z,91.34
2023-02-04T06:23:14.585Z,91.93
2023-02-04T06:25:48.844Z,91.26
2023-02-04T06:28:21.694Z,91.28
2023-02-04T06:30:55.986Z,90.76
2023-02-04T06:33:28.930Z,90.41
2023-02-04T06:36:01.870Z,91.08
2023-02-04T06:38:34.778Z,91.80
2023-02-04T06:41:07.786Z,93.13
2023-02-04T06:43:40.658Z,94.25
2023-02-04T06:46:15.561Z,94.44
2023-02-04T06:48:48.496Z,95.89
2023-02-04T06:51:21.398Z,95.53
2023-02-04T06:53:54.237Z,95.73
2023-02-04T06:56:29.395Z,96.35
2023-02-04T06:59:03.460Z,96.70
2023-02-04T07:01:39.803Z,96.46
2023-02-04T07:04:12.576Z,96.83
2023-02-04T07:06:45.303Z,96.75
2023-02-04T07:09:18.101Z,97.12
2023-02-04T07:11:50.916Z,97.20
2023-02-04T07:14:23.714Z,98.29
2023-02-04T07:16:58.725Z,98.50
2023-02-04T07:19:31.537Z,98.75
2023-02-04T07:22:04.834Z,98.38
2023-02-04T07:24:37.840Z,98.19
2023-02-04T07:27:10.662Z,98.11
2023-02-04T07:29:43.550Z,98.56
2023-02-04T07:32:17.684Z,98.56
2023-02-04T07:34:50.479Z,97.84
2023-02-04T07:37:23.700Z,97.75
2023-02-04T07:39:56.552Z,97.77
2023-02-04T07:42:29.408Z,97.85
2023-02-04T07:45:11.416Z,97.76
2023-02-04T07:47:45.766Z,97.53
2023-02-04T07:50:18.764Z,97.19
2023-02-04T07:52:51.512Z,96.53
2023-02-04T07:55:24.348Z,95.63
2023-02-04T07:57:57.272Z,96.01
2023-02-04T08:00:30.384Z,96.28
2023-02-04T08:03:05.108Z,95.86
2023-02-04T08:05:40.734Z,95.47
2023-02-04T08:08:13.494Z,95.39
2023-02-04T08:10:46.304Z,94.53
2023-02-04T08:13:19.058Z,94.24
2023-02-04T08:15:51.867Z,93.67
2023-02-04T08:18:26.109Z,93.28
2023-02-04T08:20:59.474Z,93.24
2023-02-04T08:23:33.044Z,93.67
2023-02-04T08:26:06.143Z,93.76
2023-02-04T08:28:39.386Z,93.84
2023-02-04T08:31:12.710Z,93.65
2023-02-04T08:33:47.102Z,93.00
2023-02-04T08:36:19.877Z,91.65
2023-02-04T08:38:52.675Z,91.99
2023-02-04T08:41:25.557Z,92.25
2023-02-04T08:43:58.577Z,91.40
2023-02-04T08:46:31.516Z,91.63
2023-02-04T08:49:05.816Z,91.57
2023-02-04T08:51:38.603Z,91.98
2023-02-04T08:54:11.345Z,91.71
2023-02-04T08:56:45.007Z,91.14
2023-02-04T08:59:17.790Z,90.13
2023-02-04T09:01:52.496Z,90.00
2023-02-04T09:04:28.388Z,89.98
2023-02-04T09:07:01.702Z,89.99
2023-02-04T09:09:34.444Z,89.47
2023-02-04T09:12:07.223Z,88.96
2023-02-04T09:14:39.971Z,87.91
2023-02-04T09:17:12.707Z,88.68
2023-02-04T09:19:46.839Z,88.43
2023-02-04T09:22:19.677Z,86.91
2023-02-04T09:24:52.556Z,86.56
2023-02-04T09:27:25.300Z,86.46
2023-02-04T09:29:58.330Z,85.69
2023-02-04T09:32:31.236Z,84.29
2023-02-04T09:35:06.035Z,82.90
2023-02-04T09:37:39.019Z,83.01
2023-02-04T09:40:17.119Z,81.51
2023-02-04T09:42:51.609Z,81.33
2023-02-04T09:45:28.062Z,80.91
2023-02-04T09:48:04.226Z,78.75
2023-02-04T09:50:38.595Z,79.90
2023-02-04T09:53:15.593Z,79.12
2023-02-04T09:55:49.788Z,79.10
2023-02-04T09:58:26.321Z,79.49
2023-02-04T10:01:02.505Z,78.42
2023-02-04T10:03:35.714Z,79.37
2023-02-04T10:06:10.533Z,78.46
2023-02-04T10:08:45.017Z,78.10
2023-02-04T10:11:20.662Z,77.94
2023-02-04T10:13:56.107Z,78.08
2023-02-04T10:16:32.852Z,78.60
2023-02-04T10:19:08.651Z,77.71
2023-02-04T10:21:44.752Z,77.46
2023-02-04T10:24:19.861Z,77.56
2023-02-04T10:26:52.685Z,77.73
2023-02-04T10:29:25.898Z,77.88
2023-02-04T10:31:58.782Z,77.03
2023-02-04T10:34:37.857Z,75.84
2023-02-04T10:37:21.256Z,76.50
2023-02-04T10:39:54.299Z,76.32
2023-02-04T10:42:28.616Z,76.18
2023-02-04T10:45:01.452Z,74.17
2023-02-04T10:47:35.967Z,73.74
2023-02-04T10:50:18.434Z,73.17
2023-02-04T10:52:55.323Z,73.27
2023-02-04T10:55:28.087Z,73.90
2023-02-04T10:58:03.479Z,75.06
2023-02-04T11:00:36.245Z,74.13
2023-02-04T11:03:12.986Z,73.65
2023-02-04T11:05:45.738Z,74.22
2023-02-04T11:08:24.100Z,72.99
2023-02-04T11:11:00.118Z,73.68
2023-02-04T11:13:42.025Z,73.46
2023-02-04T11:16:26.388Z,73.35
2023-02-04T11:19:00.904Z,73.15
2023-02-04T11:21:44.613Z,72.42
2023-02-04T11:24:34.556Z,72.74
2023-02-04T11:27:19.149Z,72.14
2023-02-04T11:29:52.718Z,72.80
2023-02-04T11:32:32.202Z,73.32
2023-02-04T11:35:22.173Z,71.62
2023-02-04T11:37:56.029Z,72.40
2023-02-04T11:40:32.639Z,72.49
2023-02-04T11:43:12.450Z,71.15
2023-02-04T11:45:45.636Z,73.59
2023-02-04T11:48:20.893Z,73.60
2023-02-04T11:50:57.907Z,72.64
2023-02-04T11:53:32.703Z,73.54
2023-02-04T11:56:06.974Z,73.47
2023-02-04T11:58:41.983Z,73.07
2023-02-04T12:01:18.660Z,72.72
2023-02-04T12:03:57.550Z,73.39
2023-02-04T12:06:32.987Z,73.28
2023-02-04T12:09:07.152Z,72.68
2023-02-04T12:11:41.270Z,73.13
2023-02-04T12:14:18.805Z,72.39
2023-02-04T12:16:52.682Z,73.64
2023-02-04T12:19:27.577Z,73.73
2023-02-04T12:22:00.842Z,74.38
2023-02-04T12:24:33.542Z,75.52
2023-02-04T12:27:07.631Z,74.07
2023-02-04T12:29:40.372Z,74.07
2023-02-04T12:32:13.155Z,73.22
2023-02-04T12:34:45.922Z,70.45
2023-02-04T12:37:18.664Z,68.97
2023-02-04T12:39:51.763Z,68.43
2023-02-04T12:42:25.852Z,68.21
2023-02-04T12:44:58.619Z,69.27
2023-02-04T12:47:31.348Z,67.77
2023-02-04T12:50:04.269Z,69.35
2023-02-04T12:52:39.064Z,68.80
2023-02-04T12:55:11.903Z,70.95
2023-02-04T12:57:46.459Z,69.80
2023-02-04T13:00:21.380Z,69.74
2023-02-04T13:02:55.895Z,69.89
2023-02-04T13:05:29.088Z,68.78
2023-02-04T13:08:02.036Z,70.03
2023-02-04T13:10:34.957Z,67.42
2023-02-04T13:13:09.284Z,68.04
2023-02-04T13:15:42.195Z,68.50
2023-02-04T13:18:17.383Z,69.28
2023-02-04T13:20:50.737Z,68.39
2023-02-04T13:23:23.586Z,67.93
2023-02-04T13:25:56.383Z,68.37
2023-02-04T13:28:30.484Z,67.56
2023-02-04T13:31:04.530Z,66.29
2023-02-04T13:33:37.370Z,66.52
2023-02-04T13:36:10.210Z,67.83
2023-02-04T13:38:42.958Z,65.93
2023-02-04T13:41:15.692Z,63.46
2023-02-04T13:43:49.879Z,65.05
2023-02-04T13:46:22.928Z,63.50
2023-02-04T13:48:56.155Z,64.11
2023-02-04T13:51:29.842Z,63.62
2023-02-04T13:54:02.709Z,64.57
2023-02-04T13:56:36.565Z,64.27
2023-02-04T13:59:10.667Z,65.99
2023-02-04T14:01:43.554Z,66.91
2023-02-04T14:04:16.380Z,67.41
2023-02-04T14:06:49.172Z,67.53
2023-02-04T14:09:22.614Z,66.98
2023-02-04T14:11:55.404Z,67.71
2023-02-04T14:14:29.666Z,67.26
2023-02-04T14:17:02.403Z,64.90
2023-02-04T14:19:35.330Z,65.63
2023-02-04T14:22:12.929Z,65.50
2023-02-04T14:24:47.745Z,66.94
2023-02-04T14:27:22.258Z,65.83
2023-02-04T14:29:56.399Z,66.05
2023-02-04T14:32:29.186Z,68.14
2023-02-04T14:35:02.119Z,66.68
2023-02-04T14:37:34.870Z,65.99
2023-02-04T14:40:08.936Z,66.33
2023-02-04T14:42:42.061Z,67.10
2023-02-04T14:45:16.228Z,68.81
2023-02-04T14:47:48.950Z,69.30
2023-02-04T14:53:16.447Z,67.95
2023-02-04T14:55:49.299Z,67.33
2023-02-04T14:58:22.273Z,67.87
2023-02-04T15:00:56.673Z,67.80
2023-02-04T15:03:29.622Z,67.67
2023-02-04T15:06:02.902Z,68.62
2023-02-04T15:08:35.910Z,69.14
2023-02-04T15:11:08.646Z,68.91
2023-02-04T15:13:41.461Z,69.11
2023-02-04T15:16:15.747Z,70.43
2023-02-04T15:18:48.752Z,69.47
2023-02-04T15:21:21.518Z,70.25
2023-02-04T15:23:54.274Z,71.75
2023-02-04T15:26:27.037Z,71.56
2023-02-04T15:28:59.794Z,70.94
2023-02-04T15:31:34.050Z,71.50
2023-02-04T15:34:06.877Z,70.45
2023-02-04T15:36:39.560Z,69.86
2023-02-04T15:39:12.491Z,71.50
2023-02-04T15:41:45.318Z,70.47
2023-02-04T15:44:18.109Z,71.17
2023-02-04T15:46:52.452Z,71.12
2023-02-04T15:49:25.214Z,71.49
2023-02-04T15:51:58.604Z,72.02
2023-02-04T15:54:31.660Z,72.46
2023-02-04T15:57:04.727Z,72.72
2023-02-04T15:59:37.585Z,70.40
2023-02-04T16:02:12.594Z,71.07
2023-02-04T16:04:47.881Z,71.38
2023-02-04T16:07:20.672Z,70.42
2023-02-04T16:09:53.422Z,70.60
2023-02-04T16:12:26.191Z,71.28
2023-02-04T16:14:59.333Z,70.95
2023-02-04T16:17:34.720Z,70.31
2023-02-04T16:20:08.885Z,71.12
2023-02-04T16:22:41.652Z,71.41
2023-02-04T16:25:14.422Z,69.64
2023-02-04T16:27:47.177Z,70.29
2023-02-04T16:30:19.901Z,71.24
2023-02-04T16:32:54.134Z,71.24
2023-02-04T16:35:27.104Z,71.53
2023-02-04T16:38:00.023Z,71.70
2023-02-04T16:40:33.176Z,71.92
2023-02-04T16:43:06.124Z,72.14
2023-02-04T16:45:38.878Z,71.93
2023-02-04T16:48:13.292Z,73.07
2023-02-04T16:50:46.044Z,72.95
2023-02-04T16:53:18.785Z,73.38
2023-02-04T16:55:51.534Z,73.05
2023-02-04T16:58:24.354Z,72.08
2023-02-04T17:00:58.523Z,72.07
2023-02-04T17:03:32.852Z,72.64
2023-02-04T17:06:05.914Z,72.85
2023-02-04T17:08:38.698Z,72.74
2023-02-04T17:11:29.809Z,72.45
2023-02-04T17:14:04.480Z,72.51
2023-02-04T17:16:37.702Z,72.28
2023-02-04T17:19:12.613Z,72.65
2023-02-04T17:21:45.751Z,72.42
2023-02-04T17:24:18.639Z,73.04
2023-02-04T17:26:51.418Z,72.50
2023-02-04T17:29:24.920Z,72.97
2023-02-04T17:31:57.758Z,74.94
2023-02-04T17:34:31.875Z,74.27
2023-02-04T17:37:04.719Z,74.07
2023-02-04T17:39:37.496Z,73.66
2023-02-04T17:42:10.393Z,74.59
2023-02-04T17:44:43.660Z,73.72
2023-02-04T17:47:16.627Z,74.60
2023-02-04T17:49:50.973Z,74.63
2023-02-04T17:52:23.804Z,75.92
2023-02-04T17:54:56.559Z,77.24
2023-02-04T17:57:29.519Z,76.93
2023-02-04T18:00:03.024Z,77.38
2023-02-04T18:02:45.344Z,78.07
2023-02-04T18:05:22.578Z,78.71
2023-02-04T18:08:00.984Z,78.11
2023-02-04T18:10:36.388Z,77.26
2023-02-04T18:13:14.837Z,78.10
2023-02-04T18:15:50.429Z,77.48
2023-02-04T18:18:25.393Z,78.03
2023-02-04T18:21:02.120Z,77.56
2023-02-04T18:23:35.138Z,76.67
2023-02-04T18:26:13.209Z,76.32
2023-02-04T18:28:48.407Z,76.50
2023-02-04T18:31:35.328Z,75.48
2023-02-04T18:34:20.680Z,75.32
2023-02-04T18:36:55.199Z,75.87
2023-02-04T18:39:29.727Z,77.05
2023-02-04T18:42:02.497Z,76.99
2023-02-04T18:44:38.043Z,76.72
2023-02-04T18:47:29.544Z,76.95
2023-02-04T18:50:16.591Z,77.23
2023-02-04T18:52:50.883Z,77.58
2023-02-04T18:55:30.618Z,78.63
2023-02-04T18:58:26.211Z,78.71
2023-02-04T19:01:01.867Z,78.34
2023-02-04T19:03:42.140Z,78.61
2023-02-04T19:06:25.060Z,79.04
2023-02-04T19:09:09.293Z,79.68
2023-02-04T19:11:43.704Z,79.75
2023-02-04T19:14:22.244Z,80.40
2023-02-04T19:17:03.227Z,80.34
2023-02-04T19:19:38.676Z,80.23
2023-02-04T19:22:19.747Z,80.26
2023-02-04T19:24:58.536Z,81.09
2023-02-04T19:27:34.289Z,82.02
2023-02-04T19:30:41.684Z,82.48
2023-02-04T19:33:17.925Z,82.52
2023-02-04T19:35:50.714Z,82.38
2023-02-04T19:38:40.405Z,83.54
2023-02-04T19:41:28.000Z,83.70
2023-02-04T19:44:34.654Z,82.56
2023-02-04T19:47:30.563Z,83.32
2023-02-04T19:50:21.605Z,84.36
2023-02-04T19:52:58.046Z,84.88
2023-02-04T19:55:34.429Z,85.68
2023-02-04T19:58:20.682Z,85.95
2023-02-04T20:00:57.838Z,86.27
2023-02-04T20:03:40.946Z,86.82
2023-02-04T20:06:32.700Z,87.48
2023-02-04T20:09:11.828Z,86.36
2023-02-04T20:11:59.662Z,87.40
2023-02-04T20:14:47.451Z,88.25
2023-02-04T20:17:37.301Z,87.41
2023-02-04T20:20:27.691Z,87.20
2023-02-04T20:23:00.938Z,87.21
2023-02-04T20:25:54.642Z,86.79
2023-02-04T20:28:40.163Z,87.97
2023-02-04T20:31:29.573Z,89.01
2023-02-04T20:34:02.437Z,89.50
2023-02-04T20:36:38.479Z,90.61
2023-02-04T20:39:25.125Z,90.91
2023-02-04T20:42:21.851Z,91.87
2023-02-04T20:44:55.584Z,92.49
2023-02-04T20:47:35.930Z,92.43
2023-02-04T20:50:41.207Z,91.13
2023-02-04T20:53:25.510Z,90.04
2023-02-04T20:56:03.834Z,89.75
2023-02-04T20:58:38.894Z,89.98
2023-02-04T21:01:23.136Z,91.16
2023-02-04T21:03:57.928Z,91.35
2023-02-04T21:06:36.279Z,92.21
2023-02-04T21:09:21.978Z,93.89
2023-02-04T21:11:56.152Z,95.09
2023-02-04T21:14:30.192Z,94.55
2023-02-04T21:17:03.398Z,95.01
2023-02-04T21:19:37.607Z,94.90
2023-02-04T21:22:10.314Z,95.45
2023-02-04T21:24:44.648Z,94.96
2023-02-04T21:27:21.954Z,93.75
2023-02-04T21:29:54.730Z,93.84
2023-02-04T21:32:27.476Z,93.44
2023-02-04T21:35:01.598Z,93.64
2023-02-04T21:37:34.402Z,93.38
2023-02-04T21:40:08.259Z,93.05
2023-02-04T21:42:40.977Z,92.09
2023-02-04T21:45:13.715Z,93.10
2023-02-04T21:47:47.228Z,93.25
2023-02-04T21:50:23.034Z,94.31
2023-02-04T21:52:56.000Z,94.13
2023-02-04T21:55:29.869Z,93.77
2023-02-04T21:58:02.683Z,93.22
2023-02-04T22:00:35.984Z,93.96
2023-02-04T22:03:12.976Z,94.80
2023-02-04T22:05:47.148Z,93.31
2023-02-04T22:08:19.975Z,92.09
2023-02-04T22:10:52.784Z,90.85
2023-02-04T22:13:25.543Z,90.87
2023-02-04T22:15:58.341Z,90.70
2023-02-04T22:18:31.282Z,89.98
2023-02-04T22:21:05.619Z,89.96
2023-02-04T22:23:39.659Z,90.15
2023-02-04T22:26:12.571Z,91.20
2023-02-04T22:28:45.432Z,93.35
2023-02-04T22:31:18.301Z,95.09
2023-02-04T22:33:51.135Z,96.13
2023-02-04T22:36:25.301Z,96.27
2023-02-04T22:38:58.076Z,94.88
2023-02-04T22:41:30.862Z,95.08
2023-02-04T22:44:04.232Z,94.46
2023-02-04T22:46:37.019Z,94.50
2023-02-04T22:49:09.932Z,95.18
2023-02-04T22:51:44.172Z,94.52
2023-02-04T22:54:17.054Z,93.83
2023-02-04T22:56:49.820Z,92.42
2023-02-04T22:59:22.622Z,92.68
2023-02-04T23:01:55.733Z,94.30
2023-02-04T23:04:28.615Z,96.37
2023-02-04T23:07:04.729Z,97.70
2023-02-04T23:09:37.678Z,98.29
2023-02-04T23:12:16.369Z,99.04
2023-02-04T23:14:50.027Z,100.00
2023-02-04T23:17:23.571Z,100.00
2023-02-04T23:19:56.543Z,100.00
2023-02-04T23:22:30.748Z,100.00
2023-02-04T23:25:06.196Z,100.00
2023-02-04T23:27:40.124Z,100.00
2023-02-04T23:30:14.568Z,100.00
2023-02-04T23:32:47.581Z,100.00
2023-02-04T23:35:20.908Z,100.00
2023-02-04T23:37:55.059Z,100.00
2023-02-04T23:40:27.825Z,100.00
2023-02-04T23:43:00.584Z,100.00
2023-02-04T23:45:33.663Z,99.16
2023-02-04T23:48:07.328Z,98.01
2023-02-04T23:50:40.065Z,96.68
2023-02-04T23:53:14.332Z,95.43
2023-02-04T23:55:47.406Z,95.19
2023-02-04T23:58:20.231Z,94.92
